sensor_id;sensor_type;location;lat;lon;timestamp;pressure;altitude;pressure_sealevel;temperature;humidity
61359;BME280;47228;46.762;23.598;2023-03-04T00:00:32;97292.10;;;1.77;73.53
61359;BME280;47228;46.762;23.598;2023-03-04T00:03:18;97296.17;;;1.71;73.63
61359;BME280;47228;46.762;23.598;2023-03-04T00:05:46;97291.34;;;1.66;73.55
61359;BME280;47228;46.762;23.598;2023-03-04T00:08:14;97289.52;;;1.61;73.77
61359;BME280;47228;46.762;23.598;2023-03-04T00:10:42;97292.09;;;1.58;73.83
61359;BME280;47228;46.762;23.598;2023-03-04T00:13:10;97293.13;;;1.58;74.17
61359;BME280;47228;46.762;23.598;2023-03-04T00:15:38;97295.48;;;1.61;74.27
61359;BME280;47228;46.762;23.598;2023-03-04T00:18:06;97296.02;;;1.65;73.95
61359;BME280;47228;46.762;23.598;2023-03-04T00:20:34;97295.56;;;1.68;73.89
61359;BME280;47228;46.762;23.598;2023-03-04T00:23:02;97294.39;;;1.69;73.74
61359;BME280;47228;46.762;23.598;2023-03-04T00:25:30;97293.53;;;1.69;73.71
61359;BME280;47228;46.762;23.598;2023-03-04T00:27:58;97291.57;;;1.65;73.56
61359;BME280;47228;46.762;23.598;2023-03-04T00:30:26;97287.95;;;1.60;73.50
61359;BME280;47228;46.762;23.598;2023-03-04T00:32:54;97289.53;;;1.52;73.70
61359;BME280;47228;46.762;23.598;2023-03-04T00:35:22;97293.27;;;1.44;73.83
61359;BME280;47228;46.762;23.598;2023-03-04T00:37:50;97292.91;;;1.35;74.13
61359;BME280;47228;46.762;23.598;2023-03-04T00:40:17;97295.27;;;1.26;74.36
61359;BME280;47228;46.762;23.598;2023-03-04T00:42:45;97288.98;;;1.21;74.57
61359;BME280;47228;46.762;23.598;2023-03-04T00:45:13;97289.30;;;1.17;74.87
61359;BME280;47228;46.762;23.598;2023-03-04T00:47:41;97287.01;;;1.14;74.92
61359;BME280;47228;46.762;23.598;2023-03-04T00:50:10;97281.61;;;1.12;74.95
61359;BME280;47228;46.762;23.598;2023-03-04T00:52:38;97281.88;;;1.09;75.10
61359;BME280;47228;46.762;23.598;2023-03-04T00:55:07;97285.70;;;1.09;75.28
61359;BME280;47228;46.762;23.598;2023-03-04T00:57:35;97283.70;;;1.10;75.65
61359;BME280;47228;46.762;23.598;2023-03-04T01:00:04;97282.79;;;1.10;75.64
61359;BME280;47228;46.762;23.598;2023-03-04T01:02:35;97282.27;;;1.08;75.28
61359;BME280;47228;46.762;23.598;2023-03-04T01:05:03;97280.73;;;1.04;75.25
61359;BME280;47228;46.762;23.598;2023-03-04T01:07:31;97283.51;;;1.01;75.49
61359;BME280;47228;46.762;23.598;2023-03-04T01:10:00;97278.67;;;0.98;75.69
61359;BME280;47228;46.762;23.598;2023-03-04T01:12:28;97277.59;;;0.97;75.67
61359;BME280;47228;46.762;23.598;2023-03-04T01:14:56;97278.39;;;0.96;75.56
61359;BME280;47228;46.762;23.598;2023-03-04T01:17:24;97277.54;;;0.94;75.70
61359;BME280;47228;46.762;23.598;2023-03-04T01:19:52;97280.26;;;0.89;75.42
61359;BME280;47228;46.762;23.598;2023-03-04T01:22:20;97275.77;;;0.83;75.38
61359;BME280;47228;46.762;23.598;2023-03-04T01:24:48;97270.38;;;0.75;75.52
61359;BME280;47228;46.762;23.598;2023-03-04T01:27:15;97265.98;;;0.68;75.94
61359;BME280;47228;46.762;23.598;2023-03-04T01:29:43;97264.29;;;0.61;76.18
61359;BME280;47228;46.762;23.598;2023-03-04T01:32:11;97266.05;;;0.57;76.49
61359;BME280;47228;46.762;23.598;2023-03-04T01:34:39;97264.15;;;0.55;76.64
61359;BME280;47228;46.762;23.598;2023-03-04T01:37:07;97257.64;;;0.54;76.81
61359;BME280;47228;46.762;23.598;2023-03-04T01:39:35;97258.94;;;0.53;76.79
61359;BME280;47228;46.762;23.598;2023-03-04T01:42:04;97258.96;;;0.53;77.45
61359;BME280;47228;46.762;23.598;2023-03-04T01:44:32;97253.81;;;0.52;77.26
61359;BME280;47228;46.762;23.598;2023-03-04T01:47:00;97248.53;;;0.51;77.48
61359;BME280;47228;46.762;23.598;2023-03-04T01:49:28;97245.89;;;0.51;77.37
61359;BME280;47228;46.762;23.598;2023-03-04T01:51:56;97237.96;;;0.52;77.37
61359;BME280;47228;46.762;23.598;2023-03-04T01:54:24;97234.65;;;0.56;77.72
61359;BME280;47228;46.762;23.598;2023-03-04T01:56:59;97234.77;;;0.60;77.76
61359;BME280;47228;46.762;23.598;2023-03-04T01:59:30;97236.48;;;0.65;77.27
61359;BME280;47228;46.762;23.598;2023-03-04T02:01:59;97238.87;;;0.65;76.94
61359;BME280;47228;46.762;23.598;2023-03-04T02:04:29;97238.94;;;0.58;76.73
61359;BME280;47228;46.762;23.598;2023-03-04T02:06:58;97233.45;;;0.48;76.85
61359;BME280;47228;46.762;23.598;2023-03-04T02:09:28;97232.79;;;0.42;77.24
61359;BME280;47228;46.762;23.598;2023-03-04T02:11:57;97229.61;;;0.38;77.63
61359;BME280;47228;46.762;23.598;2023-03-04T02:14:25;97227.40;;;0.36;77.79
61359;BME280;47228;46.762;23.598;2023-03-04T02:16:53;97222.72;;;0.35;77.75
61359;BME280;47228;46.762;23.598;2023-03-04T02:22:03;97224.73;;;0.34;77.62
61359;BME280;47228;46.762;23.598;2023-03-04T02:24:42;97220.15;;;0.29;77.40
61359;BME280;47228;46.762;23.598;2023-03-04T02:27:12;97220.21;;;0.25;77.23
61359;BME280;47228;46.762;23.598;2023-03-04T02:29:40;97217.77;;;0.21;77.41
61359;BME280;47228;46.762;23.598;2023-03-04T02:32:10;97217.45;;;0.19;77.66
61359;BME280;47228;46.762;23.598;2023-03-04T02:34:45;97215.91;;;0.18;77.90
61359;BME280;47228;46.762;23.598;2023-03-04T02:37:14;97212.92;;;0.17;77.76
61359;BME280;47228;46.762;23.598;2023-03-04T02:39:48;97207.84;;;0.16;77.84
61359;BME280;47228;46.762;23.598;2023-03-04T02:42:16;97208.30;;;0.14;77.66
61359;BME280;47228;46.762;23.598;2023-03-04T02:44:46;97208.04;;;0.11;77.56
61359;BME280;47228;46.762;23.598;2023-03-04T02:47:16;97211.51;;;0.08;77.48
61359;BME280;47228;46.762;23.598;2023-03-04T02:49:45;97209.86;;;0.05;77.76
61359;BME280;47228;46.762;23.598;2023-03-04T02:52:19;97208.88;;;0.02;77.75
61359;BME280;47228;46.762;23.598;2023-03-04T02:54:48;97206.46;;;-0.00;77.97
61359;BME280;47228;46.762;23.598;2023-03-04T02:57:16;97208.36;;;-0.02;77.98
61359;BME280;47228;46.762;23.598;2023-03-04T02:59:44;97208.80;;;-0.03;78.21
61359;BME280;47228;46.762;23.598;2023-03-04T03:02:12;97205.86;;;-0.05;77.89
61359;BME280;47228;46.762;23.598;2023-03-04T03:04:40;97200.62;;;-0.13;77.40
61359;BME280;47228;46.762;23.598;2023-03-04T03:07:08;97199.34;;;-0.20;77.74
61359;BME280;47228;46.762;23.598;2023-03-04T03:09:36;97197.20;;;-0.23;77.92
61359;BME280;47228;46.762;23.598;2023-03-04T03:12:04;97194.70;;;-0.24;78.29
61359;BME280;47228;46.762;23.598;2023-03-04T03:14:32;97194.98;;;-0.26;78.40
61359;BME280;47228;46.762;23.598;2023-03-04T03:17:00;97194.66;;;-0.26;78.50
61359;BME280;47228;46.762;23.598;2023-03-04T03:19:28;97194.91;;;-0.25;78.54
61359;BME280;47228;46.762;23.598;2023-03-04T03:21:56;97192.61;;;-0.24;78.55
61359;BME280;47228;46.762;23.598;2023-03-04T03:24:24;97191.15;;;-0.26;78.17
61359;BME280;47228;46.762;23.598;2023-03-04T03:26:52;97197.74;;;-0.30;78.26
61359;BME280;47228;46.762;23.598;2023-03-04T03:29:20;97196.29;;;-0.33;78.14
61359;BME280;47228;46.762;23.598;2023-03-04T03:31:48;97198.86;;;-0.38;77.92
61359;BME280;47228;46.762;23.598;2023-03-04T03:34:15;97194.27;;;-0.47;77.82
61359;BME280;47228;46.762;23.598;2023-03-04T03:36:43;97193.17;;;-0.53;78.01
61359;BME280;47228;46.762;23.598;2023-03-04T03:39:11;97196.15;;;-0.57;78.42
61359;BME280;47228;46.762;23.598;2023-03-04T03:41:39;97193.02;;;-0.59;78.70
61359;BME280;47228;46.762;23.598;2023-03-04T03:44:07;97193.70;;;-0.60;78.84
61359;BME280;47228;46.762;23.598;2023-03-04T03:46:35;97193.58;;;-0.61;79.14
61359;BME280;47228;46.762;23.598;2023-03-04T03:49:03;97194.02;;;-0.62;79.18
61359;BME280;47228;46.762;23.598;2023-03-04T03:51:31;97194.36;;;-0.64;79.35
61359;BME280;47228;46.762;23.598;2023-03-04T03:53:58;97194.20;;;-0.64;79.59
61359;BME280;47228;46.762;23.598;2023-03-04T03:56:26;97194.55;;;-0.62;79.63
61359;BME280;47228;46.762;23.598;2023-03-04T03:58:54;97192.21;;;-0.61;79.60
61359;BME280;47228;46.762;23.598;2023-03-04T04:01:22;97186.89;;;-0.62;79.31
61359;BME280;47228;46.762;23.598;2023-03-04T04:03:50;97183.83;;;-0.63;79.34
61359;BME280;47228;46.762;23.598;2023-03-04T04:06:18;97186.79;;;-0.65;79.35
61359;BME280;47228;46.762;23.598;2023-03-04T04:08:46;97182.23;;;-0.64;79.76
61359;BME280;47228;46.762;23.598;2023-03-04T04:11:14;97182.95;;;-0.65;79.76
61359;BME280;47228;46.762;23.598;2023-03-04T04:13:42;97187.16;;;-0.66;79.69
61359;BME280;47228;46.762;23.598;2023-03-04T04:16:10;97188.48;;;-0.69;79.53
61359;BME280;47228;46.762;23.598;2023-03-04T04:18:38;97189.35;;;-0.75;79.17
61359;BME280;47228;46.762;23.598;2023-03-04T04:21:06;97190.02;;;-0.80;79.29
61359;BME280;47228;46.762;23.598;2023-03-04T04:23:34;97188.08;;;-0.82;79.80
61359;BME280;47228;46.762;23.598;2023-03-04T04:26:02;97188.01;;;-0.81;79.91
61359;BME280;47228;46.762;23.598;2023-03-04T04:28:30;97190.20;;;-0.81;79.91
61359;BME280;47228;46.762;23.598;2023-03-04T04:30:58;97188.88;;;-0.79;79.85
61359;BME280;47228;46.762;23.598;2023-03-04T04:33:26;97183.33;;;-0.83;79.59
61359;BME280;47228;46.762;23.598;2023-03-04T04:35:54;97184.83;;;-0.86;79.75
61359;BME280;47228;46.762;23.598;2023-03-04T04:38:22;97184.80;;;-0.91;79.77
61359;BME280;47228;46.762;23.598;2023-03-04T04:40:51;97186.58;;;-0.93;80.02
61359;BME280;47228;46.762;23.598;2023-03-04T04:43:19;97183.50;;;-0.94;80.11
61359;BME280;47228;46.762;23.598;2023-03-04T04:45:47;97183.11;;;-0.95;79.87
61359;BME280;47228;46.762;23.598;2023-03-04T04:48:16;97184.02;;;-0.97;79.90
61359;BME280;47228;46.762;23.598;2023-03-04T04:50:45;97182.77;;;-0.99;80.16
61359;BME280;47228;46.762;23.598;2023-03-04T04:53:13;97181.67;;;-1.03;80.03
61359;BME280;47228;46.762;23.598;2023-03-04T04:55:41;97181.67;;;-1.08;79.91
61359;BME280;47228;46.762;23.598;2023-03-04T04:58:09;97182.52;;;-1.14;80.19
61359;BME280;47228;46.762;23.598;2023-03-04T05:00:37;97181.44;;;-1.18;80.53
61359;BME280;47228;46.762;23.598;2023-03-04T05:03:05;97185.30;;;-1.21;80.87
61359;BME280;47228;46.762;23.598;2023-03-04T05:05:33;97185.17;;;-1.19;81.26
61359;BME280;47228;46.762;23.598;2023-03-04T05:08:02;97189.59;;;-1.16;81.14
61359;BME280;47228;46.762;23.598;2023-03-04T05:10:30;97191.46;;;-1.15;81.04
61359;BME280;47228;46.762;23.598;2023-03-04T05:12:57;97191.08;;;-1.17;80.92
61359;BME280;47228;46.762;23.598;2023-03-04T05:15:25;97189.41;;;-1.20;80.89
61359;BME280;47228;46.762;23.598;2023-03-04T05:17:53;97187.51;;;-1.20;81.31
61359;BME280;47228;46.762;23.598;2023-03-04T05:20:21;97192.45;;;-1.17;81.54
61359;BME280;47228;46.762;23.598;2023-03-04T05:22:50;97192.30;;;-1.15;81.43
61359;BME280;47228;46.762;23.598;2023-03-04T05:25:19;97195.01;;;-1.14;81.49
61359;BME280;47228;46.762;23.598;2023-03-04T05:27:49;97192.64;;;-1.12;81.63
61359;BME280;47228;46.762;23.598;2023-03-04T05:30:17;97190.41;;;-1.09;81.46
61359;BME280;47228;46.762;23.598;2023-03-04T05:32:45;97187.66;;;-1.07;81.34
61359;BME280;47228;46.762;23.598;2023-03-04T05:35:13;97188.52;;;-1.05;81.62
61359;BME280;47228;46.762;23.598;2023-03-04T05:37:41;97185.10;;;-1.02;81.51
61359;BME280;47228;46.762;23.598;2023-03-04T05:40:11;97187.89;;;-1.00;81.43
61359;BME280;47228;46.762;23.598;2023-03-04T05:42:39;97189.26;;;-0.98;81.63
61359;BME280;47228;46.762;23.598;2023-03-04T05:45:07;97187.13;;;-0.95;81.75
61359;BME280;47228;46.762;23.598;2023-03-04T05:47:35;97187.13;;;-0.91;81.84
61359;BME280;47228;46.762;23.598;2023-03-04T05:50:03;97186.04;;;-0.87;82.02
61359;BME280;47228;46.762;23.598;2023-03-04T05:52:31;97187.40;;;-0.80;81.84
61359;BME280;47228;46.762;23.598;2023-03-04T05:54:59;97189.39;;;-0.73;81.92
61359;BME280;47228;46.762;23.598;2023-03-04T05:57:27;97190.40;;;-0.67;82.07
61359;BME280;47228;46.762;23.598;2023-03-04T05:59:58;97193.29;;;-0.60;82.24
61359;BME280;47228;46.762;23.598;2023-03-04T06:02:26;97188.73;;;-0.54;82.03
61359;BME280;47228;46.762;23.598;2023-03-04T06:04:55;97189.22;;;-0.49;82.06
61359;BME280;47228;46.762;23.598;2023-03-04T06:07:23;97185.41;;;-0.45;81.68
61359;BME280;47228;46.762;23.598;2023-03-04T06:09:51;97187.98;;;-0.39;81.81
61359;BME280;47228;46.762;23.598;2023-03-04T06:12:19;97189.08;;;-0.32;82.04
61359;BME280;47228;46.762;23.598;2023-03-04T06:14:47;97188.15;;;-0.23;82.30
61359;BME280;47228;46.762;23.598;2023-03-04T06:17:18;97187.49;;;-0.14;82.25
61359;BME280;47228;46.762;23.598;2023-03-04T06:19:46;97189.02;;;-0.04;82.39
61359;BME280;47228;46.762;23.598;2023-03-04T06:22:14;97188.48;;;0.04;82.19
61359;BME280;47228;46.762;23.598;2023-03-04T06:24:42;97191.30;;;0.12;81.99
61359;BME280;47228;46.762;23.598;2023-03-04T06:27:11;97190.11;;;0.19;81.92
61359;BME280;47228;46.762;23.598;2023-03-04T06:29:40;97194.27;;;0.27;81.57
61359;BME280;47228;46.762;23.598;2023-03-04T06:32:08;97194.74;;;0.35;81.49
61359;BME280;47228;46.762;23.598;2023-03-04T06:34:36;97196.08;;;0.43;81.29
61359;BME280;47228;46.762;23.598;2023-03-04T06:37:05;97197.46;;;0.49;80.09
61359;BME280;47228;46.762;23.598;2023-03-04T06:39:32;97196.30;;;0.54;79.12
61359;BME280;47228;46.762;23.598;2023-03-04T06:42:00;97194.16;;;0.58;78.30
61359;BME280;47228;46.762;23.598;2023-03-04T06:44:28;97196.29;;;0.63;78.19
61359;BME280;47228;46.762;23.598;2023-03-04T06:46:56;97194.77;;;0.69;77.77
61359;BME280;47228;46.762;23.598;2023-03-04T06:49:25;97191.20;;;0.73;77.34
61359;BME280;47228;46.762;23.598;2023-03-04T06:51:55;97192.46;;;0.79;76.73
61359;BME280;47228;46.762;23.598;2023-03-04T06:54:22;97192.46;;;0.84;76.33
61359;BME280;47228;46.762;23.598;2023-03-04T06:56:50;97190.67;;;0.90;75.84
61359;BME280;47228;46.762;23.598;2023-03-04T06:59:18;97195.30;;;0.97;75.51
61359;BME280;47228;46.762;23.598;2023-03-04T07:01:46;97198.92;;;1.05;75.31
61359;BME280;47228;46.762;23.598;2023-03-04T07:04:14;97199.59;;;1.12;75.28
61359;BME280;47228;46.762;23.598;2023-03-04T07:06:42;97199.38;;;1.20;75.00
61359;BME280;47228;46.762;23.598;2023-03-04T07:09:10;97196.23;;;1.28;74.38
61359;BME280;47228;46.762;23.598;2023-03-04T07:11:38;97189.89;;;1.34;74.33
61359;BME280;47228;46.762;23.598;2023-03-04T07:14:06;97188.50;;;1.43;74.40
61359;BME280;47228;46.762;23.598;2023-03-04T07:16:34;97189.55;;;1.54;74.22
61359;BME280;47228;46.762;23.598;2023-03-04T07:19:02;97187.79;;;1.67;73.71
61359;BME280;47228;46.762;23.598;2023-03-04T07:21:30;97189.46;;;1.82;73.53
61359;BME280;47228;46.762;23.598;2023-03-04T07:23:58;97187.74;;;1.98;72.54
61359;BME280;47228;46.762;23.598;2023-03-04T07:26:26;97184.92;;;2.12;72.16
61359;BME280;47228;46.762;23.598;2023-03-04T07:28:54;97183.95;;;2.27;72.06
61359;BME280;47228;46.762;23.598;2023-03-04T07:31:29;97184.05;;;2.40;70.84
61359;BME280;47228;46.762;23.598;2023-03-04T07:34:04;97179.70;;;2.51;70.52
61359;BME280;47228;46.762;23.598;2023-03-04T07:36:32;97173.11;;;2.61;70.27
61359;BME280;47228;46.762;23.598;2023-03-04T07:39:01;97167.44;;;2.70;69.92
61359;BME280;47228;46.762;23.598;2023-03-04T07:41:30;97162.94;;;2.83;70.24
61359;BME280;47228;46.762;23.598;2023-03-04T07:43:59;97161.27;;;3.00;70.13
61359;BME280;47228;46.762;23.598;2023-03-04T07:46:26;97159.02;;;3.18;70.18
61359;BME280;47228;46.762;23.598;2023-03-04T07:48:55;97158.95;;;3.36;69.65
61359;BME280;47228;46.762;23.598;2023-03-04T07:51:25;97157.40;;;3.53;69.30
61359;BME280;47228;46.762;23.598;2023-03-04T07:53:56;97155.69;;;3.70;69.22
61359;BME280;47228;46.762;23.598;2023-03-04T07:56:27;97151.13;;;3.89;67.80
61359;BME280;47228;46.762;23.598;2023-03-04T07:58:58;97153.14;;;3.99;66.24
61359;BME280;47228;46.762;23.598;2023-03-04T08:01:33;97152.97;;;4.11;66.73
61359;BME280;47228;46.762;23.598;2023-03-04T08:04:03;97154.89;;;4.24;66.35
61359;BME280;47228;46.762;23.598;2023-03-04T08:06:32;97150.40;;;4.35;65.40
61359;BME280;47228;46.762;23.598;2023-03-04T08:09:04;97148.07;;;4.43;65.22
61359;BME280;47228;46.762;23.598;2023-03-04T08:11:35;97148.52;;;4.55;65.38
61359;BME280;47228;46.762;23.598;2023-03-04T08:14:04;97142.46;;;4.68;65.27
61359;BME280;47228;46.762;23.598;2023-03-04T08:16:32;97143.38;;;4.83;64.95
61359;BME280;47228;46.762;23.598;2023-03-04T08:19:02;97144.36;;;4.96;64.60
61359;BME280;47228;46.762;23.598;2023-03-04T08:21:30;97144.30;;;5.12;64.22
61359;BME280;47228;46.762;23.598;2023-03-04T08:23:59;97140.75;;;5.24;63.68
61359;BME280;47228;46.762;23.598;2023-03-04T08:26:32;97132.64;;;5.37;63.37
61359;BME280;47228;46.762;23.598;2023-03-04T08:29:02;97136.74;;;5.50;63.23
61359;BME280;47228;46.762;23.598;2023-03-04T08:31:31;97132.70;;;5.65;63.46
61359;BME280;47228;46.762;23.598;2023-03-04T08:34:01;97128.38;;;5.78;61.89
61359;BME280;47228;46.762;23.598;2023-03-04T08:36:29;97126.59;;;5.86;61.66
61359;BME280;47228;46.762;23.598;2023-03-04T08:38:57;97123.33;;;5.99;62.07
61359;BME280;47228;46.762;23.598;2023-03-04T08:41:25;97124.67;;;6.16;62.38
61359;BME280;47228;46.762;23.598;2023-03-04T08:43:54;97120.44;;;6.33;61.60
61359;BME280;47228;46.762;23.598;2023-03-04T08:46:22;97117.82;;;6.50;61.23
61359;BME280;47228;46.762;23.598;2023-03-04T08:48:50;97117.98;;;6.66;60.58
61359;BME280;47228;46.762;23.598;2023-03-04T08:51:19;97112.61;;;6.82;60.94
61359;BME280;47228;46.762;23.598;2023-03-04T08:53:47;97110.81;;;6.99;59.63
61359;BME280;47228;46.762;23.598;2023-03-04T08:56:15;97104.10;;;7.14;58.61
61359;BME280;47228;46.762;23.598;2023-03-04T08:58:43;97102.42;;;7.21;56.71
61359;BME280;47228;46.762;23.598;2023-03-04T09:01:12;97102.65;;;7.22;55.65
61359;BME280;47228;46.762;23.598;2023-03-04T09:03:41;97100.54;;;7.27;56.23
61359;BME280;47228;46.762;23.598;2023-03-04T09:06:13;97098.89;;;7.33;53.96
61359;BME280;47228;46.762;23.598;2023-03-04T09:08:42;97095.32;;;7.34;53.07
61359;BME280;47228;46.762;23.598;2023-03-04T09:11:11;97088.33;;;7.34;52.99
61359;BME280;47228;46.762;23.598;2023-03-04T09:13:39;97088.57;;;7.43;53.96
61359;BME280;47228;46.762;23.598;2023-03-04T09:16:11;97081.49;;;7.56;53.64
61359;BME280;47228;46.762;23.598;2023-03-04T09:18:40;97077.85;;;7.69;52.94
61359;BME280;47228;46.762;23.598;2023-03-04T09:21:08;97074.64;;;7.80;53.12
61359;BME280;47228;46.762;23.598;2023-03-04T09:23:37;97074.06;;;7.91;52.21
61359;BME280;47228;46.762;23.598;2023-03-04T09:26:22;97075.21;;;8.00;52.55
61359;BME280;47228;46.762;23.598;2023-03-04T09:28:53;97076.95;;;8.16;53.56
61359;BME280;47228;46.762;23.598;2023-03-04T09:31:21;97072.77;;;8.32;52.14
61359;BME280;47228;46.762;23.598;2023-03-04T09:33:51;97067.95;;;8.41;51.41
61359;BME280;47228;46.762;23.598;2023-03-04T09:36:20;97067.02;;;8.50;51.37
61359;BME280;47228;46.762;23.598;2023-03-04T09:38:48;97068.45;;;8.54;49.44
61359;BME280;47228;46.762;23.598;2023-03-04T09:41:21;97063.60;;;8.54;49.28
61359;BME280;47228;46.762;23.598;2023-03-04T09:43:52;97059.86;;;8.51;48.75
61359;BME280;47228;46.762;23.598;2023-03-04T09:46:35;97059.42;;;8.52;49.28
61359;BME280;47228;46.762;23.598;2023-03-04T09:49:05;97057.69;;;8.60;50.16
61359;BME280;47228;46.762;23.598;2023-03-04T09:56:48;97050.16;;;8.76;50.66
61359;BME280;47228;46.762;23.598;2023-03-04T09:59:29;97051.36;;;8.83;50.78
61359;BME280;47228;46.762;23.598;2023-03-04T10:02:06;97045.95;;;8.87;50.15
61359;BME280;47228;46.762;23.598;2023-03-04T10:04:46;97044.36;;;8.88;49.66
61359;BME280;47228;46.762;23.598;2023-03-04T10:07:23;97037.67;;;8.87;49.17
61359;BME280;47228;46.762;23.598;2023-03-04T10:10:16;97033.96;;;8.83;49.19
61359;BME280;47228;46.762;23.598;2023-03-04T10:12:47;97028.67;;;8.85;49.91
61359;BME280;47228;46.762;23.598;2023-03-04T10:18:05;97016.52;;;9.04;49.74
61359;BME280;47228;46.762;23.598;2023-03-04T10:20:52;97011.00;;;9.20;49.48
61359;BME280;47228;46.762;23.598;2023-03-04T10:23:21;97004.31;;;9.30;48.46
61359;BME280;47228;46.762;23.598;2023-03-04T10:25:51;96996.93;;;9.37;48.53
61359;BME280;47228;46.762;23.598;2023-03-04T10:28:25;96994.48;;;9.41;48.12
61359;BME280;47228;46.762;23.598;2023-03-04T10:33:25;96985.30;;;9.59;49.19
61359;BME280;47228;46.762;23.598;2023-03-04T10:36:26;96981.91;;;9.81;49.62
61359;BME280;47228;46.762;23.598;2023-03-04T10:39:20;96980.37;;;10.10;48.64
61359;BME280;47228;46.762;23.598;2023-03-04T10:41:59;96977.30;;;10.34;48.20
61359;BME280;47228;46.762;23.598;2023-03-04T10:44:28;96973.37;;;10.49;46.81
61359;BME280;47228;46.762;23.598;2023-03-04T10:46:57;96968.31;;;10.56;46.56
61359;BME280;47228;46.762;23.598;2023-03-04T10:49:26;96961.95;;;10.64;46.63
61359;BME280;47228;46.762;23.598;2023-03-04T10:52:33;96961.42;;;10.69;47.22
61359;BME280;47228;46.762;23.598;2023-03-04T10:55:12;96956.29;;;10.73;46.76
61359;BME280;47228;46.762;23.598;2023-03-04T10:57:44;96951.01;;;10.75;46.53
61359;BME280;47228;46.762;23.598;2023-03-04T11:00:35;96951.13;;;10.79;46.65
61359;BME280;47228;46.762;23.598;2023-03-04T11:08:57;96940.24;;;10.99;46.36
61359;BME280;47228;46.762;23.598;2023-03-04T11:11:41;96939.81;;;11.14;46.18
61359;BME280;47228;46.762;23.598;2023-03-04T11:14:22;96934.01;;;11.23;45.05
61359;BME280;47228;46.762;23.598;2023-03-04T11:16:53;96933.56;;;11.36;45.36
61359;BME280;47228;46.762;23.598;2023-03-04T11:19:25;96934.00;;;11.55;45.41
61359;BME280;47228;46.762;23.598;2023-03-04T11:21:56;96928.98;;;11.77;45.07
61359;BME280;47228;46.762;23.598;2023-03-04T11:24:27;96926.23;;;11.96;45.07
61359;BME280;47228;46.762;23.598;2023-03-04T11:27:10;96922.20;;;12.07;43.47
61359;BME280;47228;46.762;23.598;2023-03-04T11:30:12;96914.88;;;11.99;42.92
61359;BME280;47228;46.762;23.598;2023-03-04T11:32:46;96906.96;;;11.96;43.18
61359;BME280;47228;46.762;23.598;2023-03-04T11:35:27;96911.30;;;11.93;43.02
61359;BME280;47228;46.762;23.598;2023-03-04T11:38:18;96906.56;;;11.77;42.85
61359;BME280;47228;46.762;23.598;2023-03-04T11:40:56;96901.23;;;11.57;42.95
61359;BME280;47228;46.762;23.598;2023-03-04T11:43:33;96897.23;;;11.38;42.99
61359;BME280;47228;46.762;23.598;2023-03-04T12:02:11;96862.77;;;10.44;45.72
61359;BME280;47228;46.762;23.598;2023-03-04T12:10:44;96850.97;;;10.27;45.69
61359;BME280;47228;46.762;23.598;2023-03-04T12:19:09;96843.89;;;10.10;46.66
61359;BME280;47228;46.762;23.598;2023-03-04T12:22:14;96842.95;;;10.11;46.06
61359;BME280;47228;46.762;23.598;2023-03-04T12:33:44;96826.77;;;10.20;45.70
61359;BME280;47228;46.762;23.598;2023-03-04T12:56:25;96798.46;;;10.10;43.27
61359;BME280;47228;46.762;23.598;2023-03-04T12:58:55;96792.80;;;10.13;43.33
61359;BME280;47228;46.762;23.598;2023-03-04T13:10:20;96776.57;;;10.29;42.86
61359;BME280;47228;46.762;23.598;2023-03-04T13:23:03;96763.85;;;10.26;41.90
61359;BME280;47228;46.762;23.598;2023-03-04T13:25:47;96759.52;;;10.22;42.82
61359;BME280;47228;46.762;23.598;2023-03-04T13:28:29;96754.46;;;10.20;42.77
61359;BME280;47228;46.762;23.598;2023-03-04T13:36:29;96740.31;;;10.17;42.75
61359;BME280;47228;46.762;23.598;2023-03-04T13:39:20;96738.84;;;10.18;42.75
61359;BME280;47228;46.762;23.598;2023-03-04T13:41:51;96735.55;;;10.20;43.04
61359;BME280;47228;46.762;23.598;2023-03-04T13:47:16;96729.70;;;10.26;42.58
61359;BME280;47228;46.762;23.598;2023-03-04T13:49:45;96728.67;;;10.29;43.20
61359;BME280;47228;46.762;23.598;2023-03-04T13:52:37;96725.80;;;10.31;43.03
61359;BME280;47228;46.762;23.598;2023-03-04T13:57:59;96714.60;;;10.37;43.02
61359;BME280;47228;46.762;23.598;2023-03-04T14:00:28;96707.92;;;10.39;43.40
61359;BME280;47228;46.762;23.598;2023-03-04T14:02:56;96704.30;;;10.45;42.89
61359;BME280;47228;46.762;23.598;2023-03-04T14:05:38;96700.89;;;10.52;42.75
61359;BME280;47228;46.762;23.598;2023-03-04T14:08:19;96699.41;;;10.61;42.74
61359;BME280;47228;46.762;23.598;2023-03-04T14:10:54;96699.17;;;10.73;42.89
61359;BME280;47228;46.762;23.598;2023-03-04T14:13:22;96697.06;;;10.80;42.91
61359;BME280;47228;46.762;23.598;2023-03-04T14:15:57;96693.05;;;10.84;43.11
61359;BME280;47228;46.762;23.598;2023-03-04T14:18:25;96690.50;;;10.89;42.71
61359;BME280;47228;46.762;23.598;2023-03-04T14:20:57;96683.95;;;11.00;42.69
61359;BME280;47228;46.762;23.598;2023-03-04T14:23:32;96682.94;;;11.15;42.53
61359;BME280;47228;46.762;23.598;2023-03-04T14:28:42;96686.05;;;11.34;41.84
61359;BME280;47228;46.762;23.598;2023-03-04T14:31:15;96683.70;;;11.32;41.82
61359;BME280;47228;46.762;23.598;2023-03-04T14:33:50;96678.81;;;11.27;41.38
61359;BME280;47228;46.762;23.598;2023-03-04T14:36:20;96676.69;;;11.20;41.73
61359;BME280;47228;46.762;23.598;2023-03-04T14:38:55;96668.92;;;11.14;42.10
61359;BME280;47228;46.762;23.598;2023-03-04T14:41:36;96666.77;;;11.09;42.23
61359;BME280;47228;46.762;23.598;2023-03-04T14:46:48;96658.10;;;10.99;42.25
61359;BME280;47228;46.762;23.598;2023-03-04T14:49:37;96662.35;;;10.99;42.81
61359;BME280;47228;46.762;23.598;2023-03-04T14:52:24;96659.25;;;11.02;42.47
61359;BME280;47228;46.762;23.598;2023-03-04T14:55:23;96654.77;;;11.10;42.54
61359;BME280;47228;46.762;23.598;2023-03-04T14:58:05;96650.90;;;11.12;41.74
61359;BME280;47228;46.762;23.598;2023-03-04T15:00:38;96653.56;;;11.02;41.22
61359;BME280;47228;46.762;23.598;2023-03-04T15:03:21;96654.19;;;10.90;41.76
61359;BME280;47228;46.762;23.598;2023-03-04T15:05:51;96649.92;;;10.82;42.16